Time;durP1;ratioP1;P1;durP2;ratioP2;P2;SDS_P1;SDS_P2;PMS_P1;PMS_P2;Temp;Humidity;BMP_temperature;BMP_pressure;BME280_temperature;BME280_humidity;BME280_pressure;Samples;Min_cycle;Max_cycle;Signal;HPM_P1;HPM_P2
2023/05/29 00:01:40;;;;;;;3.90;3.10;;;23.70;60.70;;;;;;5036530;28;20181;-85
2023/05/29 00:04:06;;;;;;;3.13;2.50;;;23.60;60.50;;;;;;5051025;28;20834;-85
2023/05/29 00:06:38;;;;;;;2.80;2.33;;;23.60;60.50;;;;;;5059770;28;20429;-85
2023/05/29 00:09:04;;;;;;;3.77;3.30;;;23.60;60.40;;;;;;5043173;28;20438;-86
2023/05/29 00:11:33;;;;;;;3.37;2.93;;;23.50;60.30;;;;;;5043545;28;20414;-85
2023/05/29 00:13:59;;;;;;;4.00;2.50;;;23.50;60.40;;;;;;5042795;28;20461;-84
2023/05/29 00:16:29;;;;;;;4.63;2.70;;;23.50;60.30;;;;;;5042721;28;20441;-86
2023/05/29 00:18:57;;;;;;;3.53;3.13;;;23.50;60.40;;;;;;5059551;28;20240;-85
2023/05/29 00:21:23;;;;;;;4.53;2.43;;;23.50;60.40;;;;;;5059059;28;20437;-84
2023/05/29 00:23:49;;;;;;;3.07;2.80;;;23.40;60.20;;;;;;5042612;28;20824;-84
2023/05/29 00:26:16;;;;;;;2.87;2.60;;;23.40;60.30;;;;;;5059441;28;20774;-86
2023/05/29 00:28:45;;;;;;;2.80;2.60;;;23.40;60.40;;;;;;5059194;28;20406;-86
2023/05/29 00:31:11;;;;;;;3.43;2.97;;;23.40;60.50;;;;;;5042631;28;20425;-86
2023/05/29 00:33:37;;;;;;;3.87;2.90;;;23.30;60.40;;;;;;5057905;28;20285;-86
2023/05/29 00:36:06;;;;;;;3.87;2.93;;;23.30;61.40;;;;;;5025993;28;20836;-83
2023/05/29 00:38:31;;;;;;;3.10;2.70;;;23.30;60.60;;;;;;5042610;28;20467;-84
2023/05/29 00:40:58;;;;;;;3.10;2.80;;;23.30;60.80;;;;;;5042399;28;20906;-86
2023/05/29 00:43:24;;;;;;;4.00;2.73;;;23.30;60.70;;;;;;5059057;28;20286;-85
2023/05/29 00:45:50;;;;;;;3.97;2.83;;;23.30;60.90;;;;;;5076153;28;20853;-86
2023/05/29 00:48:16;;;;;;;4.60;2.70;;;23.20;60.80;;;;;;5058902;28;20405;-84
2023/05/29 00:50:46;;;;;;;3.13;2.73;;;23.20;60.90;;;;;;5042260;28;20480;-85
2023/05/29 00:53:19;;;;;;;6.30;3.20;;;23.20;60.90;;;;;;5042212;28;20452;-85
2023/05/29 00:55:47;;;;;;;2.80;2.50;;;23.20;60.90;;;;;;5042233;28;20889;-86
2023/05/29 00:58:16;;;;;;;5.77;2.90;;;23.10;61.00;;;;;;5026190;28;20497;-84
2023/05/29 01:00:45;;;;;;;3.20;2.43;;;23.10;61.10;;;;;;5059190;28;20451;-84
2023/05/29 01:03:16;;;;;;;5.73;3.07;;;23.10;61.20;;;;;;5058533;28;20448;-86
2023/05/29 01:05:46;;;;;;;3.13;2.63;;;23.10;61.20;;;;;;5059241;28;20406;-84
2023/05/29 01:08:14;;;;;;;3.70;2.97;;;23.10;61.20;;;;;;5058823;28;20459;-84
2023/05/29 01:10:42;;;;;;;4.97;3.10;;;23.10;61.30;;;;;;5042052;28;20442;-84
2023/05/29 01:13:21;;;;;;;4.70;2.57;;;23.00;61.20;;;;;;5042500;28;20860;-85
2023/05/29 01:16:18;;;;;;;3.60;3.30;;;23.00;61.30;;;;;;5058306;28;20781;-85
2023/05/29 01:19:13;;;;;;;3.63;2.77;;;23.00;61.30;;;;;;5058334;28;20421;-85
2023/05/29 01:21:48;;;;;;;2.43;2.23;;;22.90;61.30;;;;;;5058322;28;20475;-85
2023/05/29 01:24:18;;;;;;;4.07;3.10;;;22.90;61.50;;;;;;5058056;28;20441;-83
2023/05/29 01:26:51;;;;;;;4.30;2.73;;;22.80;61.60;;;;;;5058020;28;20454;-84
2023/05/29 01:29:24;;;;;;;2.87;2.40;;;22.80;61.60;;;;;;5041504;28;20866;-84
2023/05/29 01:31:57;;;;;;;5.33;2.87;;;22.80;61.70;;;;;;5058504;28;21017;-84
2023/05/29 01:34:22;;;;;;;5.47;2.60;;;22.80;61.70;;;;;;5023443;28;20466;-85
2023/05/29 01:36:53;;;;;;;3.27;2.83;;;22.70;61.60;;;;;;5038515;28;20407;-85
2023/05/29 01:39:22;;;;;;;3.27;2.40;;;22.70;61.70;;;;;;5055472;28;20490;-85
2023/05/29 01:41:51;;;;;;;3.17;2.40;;;22.70;61.80;;;;;;5005183;28;20426;-85
2023/05/29 01:44:18;;;;;;;5.20;3.10;;;22.70;61.90;;;;;;5037411;28;20537;-85
2023/05/29 01:46:46;;;;;;;4.47;2.80;;;22.70;62.00;;;;;;5021505;28;20449;-82
2023/05/29 01:49:16;;;;;;;4.87;3.10;;;22.60;61.90;;;;;;5037734;28;20432;-84
2023/05/29 01:51:42;;;;;;;5.10;2.60;;;22.60;62.00;;;;;;5021270;28;20767;-85
2023/05/29 01:54:11;;;;;;;3.07;2.60;;;22.60;62.00;;;;;;5021600;28;20458;-84
2023/05/29 01:56:41;;;;;;;3.70;2.70;;;22.60;62.20;;;;;;5021199;28;20929;-84
2023/05/29 01:59:12;;;;;;;5.27;2.67;;;22.50;62.30;;;;;;5005439;28;20892;-84
2023/05/29 02:01:41;;;;;;;5.70;2.80;;;22.50;62.50;;;;;;5004957;28;20800;-84
2023/05/29 02:04:07;;;;;;;5.47;2.70;;;22.50;62.40;;;;;;5037865;28;20454;-85
2023/05/29 02:06:36;;;;;;;7.47;2.73;;;22.40;62.40;;;;;;5021464;28;20509;-86
2023/05/29 02:09:06;;;;;;;8.00;3.43;;;22.40;62.40;;;;;;5021642;28;20419;-85
2023/05/29 02:11:34;;;;;;;6.27;3.13;;;22.40;62.50;;;;;;5054851;28;20450;-85
2023/05/29 02:14:02;;;;;;;2.80;2.60;;;22.40;62.60;;;;;;5021471;28;20801;-85
2023/05/29 02:16:28;;;;;;;5.60;2.97;;;22.30;62.40;;;;;;5024543;28;20426;-85
2023/05/29 02:18:57;;;;;;;4.83;2.90;;;22.30;62.30;;;;;;5063448;28;20435;-84
2023/05/29 02:21:25;;;;;;;5.67;2.73;;;22.30;62.40;;;;;;5022988;28;20863;-85
2023/05/29 02:23:53;;;;;;;4.53;3.23;;;22.30;62.40;;;;;;5021472;28;20466;-85
2023/05/29 02:26:22;;;;;;;5.10;2.60;;;22.20;62.20;;;;;;5023210;28;20913;-84
2023/05/29 02:28:50;;;;;;;5.77;2.67;;;22.20;62.20;;;;;;5021254;28;20768;-85
2023/05/29 02:31:22;;;;;;;5.10;2.43;;;22.20;62.20;;;;;;5043361;28;20481;-85
2023/05/29 02:33:48;;;;;;;5.53;3.00;;;22.20;62.30;;;;;;5051031;28;20482;-84
2023/05/29 02:36:16;;;;;;;8.33;3.30;;;22.20;62.30;;;;;;5057333;28;20532;-85
2023/05/29 02:38:42;;;;;;;6.53;2.67;;;22.20;62.20;;;;;;5074548;28;20502;-84
2023/05/29 02:41:13;;;;;;;6.10;2.90;;;22.20;62.20;;;;;;5057191;28;20410;-85
2023/05/29 02:43:42;;;;;;;5.40;2.50;;;22.10;62.10;;;;;;5024676;28;20182;-85
2023/05/29 02:46:07;;;;;;;8.10;2.80;;;22.10;62.00;;;;;;5056962;28;20802;-86
2023/05/29 02:48:33;;;;;;;8.20;3.03;;;22.10;61.90;;;;;;5057203;28;20175;-85
2023/05/29 02:51:02;;;;;;;5.70;2.97;;;22.00;61.80;;;;;;5040771;28;20438;-87
2023/05/29 02:53:31;;;;;;;6.50;3.30;;;22.00;61.80;;;;;;5024079;28;20460;-84
2023/05/29 02:55:59;;;;;;;7.80;3.00;;;22.00;61.90;;;;;;5057569;28;20429;-85
2023/05/29 02:58:27;;;;;;;4.80;2.70;;;21.90;61.60;;;;;;5060902;28;20449;-84
2023/05/29 03:00:53;;;;;;;8.90;3.03;;;21.90;61.60;;;;;;5078431;28;20425;-85
2023/05/29 03:03:24;;;;;;;6.30;3.20;;;21.90;61.60;;;;;;5044401;28;20405;-84
2023/05/29 03:05:52;;;;;;;6.60;2.97;;;21.90;61.70;;;;;;5060769;28;20923;-85
2023/05/29 03:08:18;;;;;;;6.40;2.63;;;21.90;61.70;;;;;;5044246;28;20419;-85
2023/05/29 03:10:44;;;;;;;5.13;2.37;;;21.90;61.70;;;;;;5044251;28;20183;-84
2023/05/29 03:13:10;;;;;;;4.97;2.63;;;21.80;61.60;;;;;;5060697;28;20441;-84
2023/05/29 03:15:41;;;;;;;4.03;2.10;;;21.80;61.70;;;;;;5044478;28;20464;-84
2023/05/29 03:18:10;;;;;;;6.90;2.87;;;21.80;61.70;;;;;;5043892;28;20470;-84
2023/05/29 03:20:36;;;;;;;6.30;2.60;;;21.80;61.80;;;;;;5043968;28;20418;-85
2023/05/29 03:23:02;;;;;;;7.07;2.23;;;21.80;61.80;;;;;;5060283;28;20479;-83
2023/05/29 03:25:29;;;;;;;7.13;2.87;;;21.70;61.50;;;;;;5043816;28;20757;-84
2023/05/29 03:27:55;;;;;;;6.90;3.00;;;21.70;61.50;;;;;;5027432;28;20413;-84
2023/05/29 03:30:23;;;;;;;6.90;2.40;;;21.70;61.50;;;;;;5027991;28;20466;-84
2023/05/29 03:32:50;;;;;;;9.63;2.60;;;21.70;61.50;;;;;;5060270;28;20457;-85
2023/05/29 03:35:18;;;;;;;6.40;2.30;;;21.70;61.60;;;;;;5027260;28;20567;-85
2023/05/29 03:37:46;;;;;;;4.80;2.67;;;21.70;61.60;;;;;;5060483;28;20757;-84
2023/05/29 03:40:12;;;;;;;6.70;2.90;;;21.70;61.70;;;;;;5043539;28;20441;-84
2023/05/29 03:42:40;;;;;;;5.40;2.70;;;21.60;61.50;;;;;;5026998;28;20754;-83
2023/05/29 03:45:09;;;;;;;4.70;2.20;;;21.60;61.60;;;;;;5059789;28;20424;-84
2023/05/29 03:47:38;;;;;;;5.50;2.33;;;21.60;61.60;;;;;;5059939;28;20405;-84
2023/05/29 03:50:05;;;;;;;6.30;2.57;;;21.60;61.60;;;;;;5059818;28;20436;-82
2023/05/29 03:52:34;;;;;;;6.60;2.30;;;21.60;61.60;;;;;;5043739;28;20534;-83
2023/05/29 03:55:01;;;;;;;5.30;2.23;;;21.50;61.70;;;;;;5059765;28;20514;-84
2023/05/29 03:57:27;;;;;;;5.27;2.73;;;21.50;61.60;;;;;;5060009;28;20465;-84
2023/05/29 03:59:53;;;;;;;7.47;2.43;;;21.50;61.60;;;;;;5043168;28;20533;-84
2023/05/29 04:02:19;;;;;;;7.53;2.30;;;21.50;61.70;;;;;;5059685;28;20183;-84
2023/05/29 04:04:45;;;;;;;6.00;2.60;;;21.40;61.70;;;;;;5042899;28;20440;-84
2023/05/29 04:07:13;;;;;;;5.27;2.50;;;21.40;61.80;;;;;;5042614;28;20502;-84
2023/05/29 04:09:41;;;;;;;6.00;2.43;;;21.40;61.80;;;;;;5060262;28;20281;-84
2023/05/29 04:12:13;;;;;;;6.07;2.73;;;21.40;61.90;;;;;;5043084;28;20528;-85
2023/05/29 04:14:42;;;;;;;6.57;2.50;;;21.30;61.90;;;;;;5059392;28;20452;-85
2023/05/29 04:17:10;;;;;;;7.87;2.10;;;21.30;62.00;;;;;;5042755;28;20413;-86
2023/05/29 04:19:36;;;;;;;7.47;2.50;;;21.30;62.00;;;;;;5042652;28;20825;-83
2023/05/29 04:22:02;;;;;;;9.13;2.60;;;21.30;62.00;;;;;;5076090;28;20499;-84
2023/05/29 04:24:28;;;;;;;8.77;2.40;;;21.30;62.10;;;;;;5059370;28;20189;-85
2023/05/29 04:27:00;;;;;;;6.97;2.57;;;21.30;62.10;;;;;;5059323;28;20457;-84
2023/05/29 04:29:34;;;;;;;6.63;2.23;;;21.20;62.10;;;;;;5059174;28;20905;-85
2023/05/29 04:32:03;;;;;;;6.73;2.37;;;21.20;62.20;;;;;;5042558;28;20410;-84
2023/05/29 04:34:31;;;;;;;6.07;2.33;;;21.20;62.20;;;;;;5042578;28;20556;-85
2023/05/29 04:37:00;;;;;;;5.83;3.00;;;21.10;62.10;;;;;;5075712;28;20825;-84
2023/05/29 04:39:34;;;;;;;7.13;2.70;;;21.10;62.20;;;;;;5042597;28;20571;-84
2023/05/29 04:42:00;;;;;;;6.70;3.10;;;21.10;62.20;;;;;;5042419;28;20843;-84
2023/05/29 04:44:29;;;;;;;6.57;2.57;;;21.10;62.40;;;;;;5026054;28;20982;-84
2023/05/29 04:46:56;;;;;;;5.27;2.67;;;21.10;62.40;;;;;;5075351;28;20462;-84
2023/05/29 04:49:26;;;;;;;8.37;2.77;;;21.10;62.50;;;;;;5025855;28;20441;-84
2023/05/29 04:51:53;;;;;;;5.47;2.50;;;21.10;62.60;;;;;;5042074;28;20885;-84
2023/05/29 04:54:23;;;;;;;6.77;2.87;;;21.00;62.60;;;;;;5058886;28;20786;-83
2023/05/29 04:56:52;;;;;;;6.53;2.97;;;21.00;62.60;;;;;;5026549;28;20432;-85
2023/05/29 04:59:19;;;;;;;6.47;2.20;;;21.00;62.80;;;;;;5042281;28;20432;-85
2023/05/29 05:01:47;;;;;;;5.07;2.30;;;21.00;62.90;;;;;;5025703;28;20457;-84
2023/05/29 05:04:13;;;;;;;7.77;2.80;;;21.00;62.90;;;;;;5041929;28;20731;-84
2023/05/29 05:06:41;;;;;;;6.43;2.60;;;20.90;62.80;;;;;;5022317;28;20445;-84
2023/05/29 05:09:09;;;;;;;8.77;3.60;;;20.90;62.90;;;;;;5028371;28;20529;-85
2023/05/29 05:11:37;;;;;;;8.13;3.00;;;20.90;63.00;;;;;;5018883;28;20527;-83
2023/05/29 05:14:05;;;;;;;6.47;2.27;;;20.90;63.00;;;;;;5002443;28;20482;-84
2023/05/29 05:16:32;;;;;;;7.17;2.43;;;20.80;63.10;;;;;;5002599;28;20428;-82
2023/05/29 05:19:00;;;;;;;6.17;2.40;;;20.80;63.90;;;;;;5034283;28;20440;-85
2023/05/29 05:21:30;;;;;;;10.90;2.63;;;20.80;63.10;;;;;;5002535;28;20407;-85
2023/05/29 05:24:00;;;;;;;7.00;2.73;;;20.80;63.10;;;;;;5019006;28;20400;-83
2023/05/29 05:26:26;;;;;;;8.50;2.80;;;20.80;63.20;;;;;;5018472;28;20513;-85
2023/05/29 05:28:52;;;;;;;6.50;2.70;;;20.80;63.30;;;;;;5018514;28;20422;-83
2023/05/29 05:31:21;;;;;;;7.70;2.63;;;20.80;63.30;;;;;;5001770;28;20459;-83
2023/05/29 05:33:49;;;;;;;9.60;2.87;;;20.70;63.30;;;;;;5018121;28;20490;-83
2023/05/29 05:36:16;;;;;;;6.40;2.90;;;20.70;63.30;;;;;;5018362;28;20482;-85
2023/05/29 05:38:41;;;;;;;8.17;2.87;;;20.70;63.40;;;;;;5002207;28;20503;-84
2023/05/29 05:41:08;;;;;;;6.87;2.53;;;20.70;63.40;;;;;;5002094;28;20427;-84
2023/05/29 05:43:33;;;;;;;6.70;2.53;;;20.70;63.50;;;;;;5018100;28;20738;-83
2023/05/29 05:46:06;;;;;;;6.97;2.87;;;20.70;63.50;;;;;;5002737;28;20196;-84
2023/05/29 05:48:34;;;;;;;7.67;2.50;;;20.70;63.60;;;;;;5001901;28;20438;-84
2023/05/29 05:51:00;;;;;;;6.43;2.40;;;20.70;63.60;;;;;;5017885;28;20511;-84
2023/05/29 05:53:26;;;;;;;5.70;2.27;;;20.60;63.60;;;;;;5017964;28;20472;-84
2023/05/29 05:55:52;;;;;;;7.97;2.20;;;20.60;63.70;;;;;;5017988;28;20517;-83
2023/05/29 05:58:17;;;;;;;6.50;3.03;;;20.60;63.70;;;;;;5001556;28;20426;-83
2023/05/29 06:00:44;;;;;;;7.10;2.30;;;20.60;64.60;;;;;;5001323;28;20606;-84
2023/05/29 06:03:12;;;;;;;6.60;2.40;;;20.60;63.70;;;;;;5025294;28;20446;-83
2023/05/29 06:05:58;;;;;;;5.33;2.30;;;20.60;64.60;;;;;;5044276;28;20342;-83
2023/05/29 06:08:26;;;;;;;7.93;2.70;;;20.60;63.80;;;;;;5037391;28;20509;-83
2023/05/29 06:10:55;;;;;;;6.53;2.53;;;20.50;64.60;;;;;;5037537;28;20403;-84
2023/05/29 06:13:24;;;;;;;8.80;3.00;;;20.50;63.80;;;;;;5020840;28;20504;-84
2023/05/29 06:15:58;;;;;;;6.00;2.33;;;20.50;63.90;;;;;;5005884;28;20441;-84
2023/05/29 06:18:24;;;;;;;6.90;2.70;;;20.50;63.90;;;;;;5021075;28;20507;-83
2023/05/29 06:20:50;;;;;;;5.90;2.50;;;20.50;64.00;;;;;;5021010;28;20436;-84
2023/05/29 06:23:17;;;;;;;5.80;2.47;;;20.50;64.10;;;;;;5037506;28;20456;-84
2023/05/29 06:25:43;;;;;;;8.90;2.50;;;20.50;64.10;;;;;;5004716;28;20454;-82
2023/05/29 06:28:11;;;;;;;5.30;2.70;;;20.40;64.00;;;;;;5037271;28;20557;-84
2023/05/29 06:30:41;;;;;;;6.87;2.73;;;20.40;64.10;;;;;;5036329;28;20433;-84
2023/05/29 06:33:08;;;;;;;8.40;2.50;;;20.40;64.10;;;;;;5012663;28;20455;-84
2023/05/29 06:35:36;;;;;;;11.87;2.67;;;20.40;64.10;;;;;;5073857;28;20521;-84
2023/05/29 06:38:02;;;;;;;7.00;2.60;;;20.40;64.20;;;;;;5057130;28;20420;-84
2023/05/29 06:40:28;;;;;;;4.33;2.63;;;20.40;64.20;;;;;;5024308;28;20578;-84
2023/05/29 06:42:54;;;;;;;6.70;2.67;;;20.40;64.20;;;;;;5040700;28;20443;-84
2023/05/29 06:45:34;;;;;;;7.60;3.17;;;20.40;64.30;;;;;;5056939;28;20433;-85
2023/05/29 06:48:01;;;;;;;5.17;1.80;;;20.40;64.40;;;;;;5040631;28;20426;-83
2023/05/29 06:50:29;;;;;;;6.80;2.70;;;20.40;64.40;;;;;;5040519;28;20447;-81
2023/05/29 06:53:00;;;;;;;6.50;2.63;;;20.40;64.50;;;;;;5040404;28;20817;-84
2023/05/29 06:55:32;;;;;;;4.37;2.30;;;20.40;64.50;;;;;;5040262;28;20521;-84
2023/05/29 06:57:57;;;;;;;5.07;2.43;;;20.40;64.50;;;;;;5040418;28;20762;-83
2023/05/29 07:00:25;;;;;;;5.97;2.63;;;20.40;64.60;;;;;;5024367;28;20457;-85
2023/05/29 07:03:29;;;;;;;8.10;2.93;;;20.40;64.60;;;;;;5062507;28;20726;-83
2023/05/29 07:05:58;;;;;;;8.27;2.40;;;20.40;64.60;;;;;;5024425;28;20432;-85
2023/05/29 07:08:27;;;;;;;6.40;2.40;;;20.40;64.60;;;;;;5041144;28;20444;-85
2023/05/29 07:10:53;;;;;;;9.27;3.57;;;20.30;64.60;;;;;;5040141;28;20420;-84
2023/05/29 07:13:25;;;;;;;7.30;2.73;;;20.40;64.60;;;;;;5040780;28;20494;-85
2023/05/29 07:15:53;;;;;;;6.37;2.40;;;20.40;64.70;;;;;;5056968;28;20757;-85
2023/05/29 07:18:30;;;;;;;8.40;2.47;;;20.40;64.70;;;;;;5056774;28;20440;-85
2023/05/29 07:21:00;;;;;;;5.97;2.30;;;20.40;64.80;;;;;;5040419;28;20424;-84
2023/05/29 07:23:29;;;;;;;7.43;2.50;;;20.40;64.80;;;;;;5056766;28;20751;-85
2023/05/29 07:25:56;;;;;;;3.13;2.00;;;20.40;64.80;;;;;;5056722;28;20742;-83
2023/05/29 07:28:32;;;;;;;5.40;2.50;;;20.40;64.80;;;;;;5040201;28;20401;-83
2023/05/29 07:30:58;;;;;;;7.40;2.30;;;20.40;64.70;;;;;;5056499;28;20413;-84
2023/05/29 07:33:26;;;;;;;6.50;2.63;;;20.40;64.70;;;;;;5040046;28;20411;-84
2023/05/29 07:35:55;;;;;;;8.27;2.40;;;20.40;64.90;;;;;;5038442;28;20457;-84
2023/05/29 07:38:23;;;;;;;6.80;3.40;;;20.40;64.90;;;;;;5026745;28;20427;-84
2023/05/29 07:40:49;;;;;;;6.03;3.00;;;20.40;64.90;;;;;;5053967;28;20437;-85
2023/05/29 07:43:32;;;;;;;8.40;2.70;;;20.40;64.80;;;;;;5037165;28;20458;-86
2023/05/29 07:46:03;;;;;;;7.30;3.77;;;20.40;64.80;;;;;;5032967;28;20456;-85
2023/05/29 07:48:31;;;;;;;6.37;3.13;;;20.40;64.90;;;;;;5023857;28;20814;-83
2023/05/29 07:51:01;;;;;;;10.53;3.03;;;20.40;64.90;;;;;;5023963;28;20516;-84
2023/05/29 07:53:30;;;;;;;4.90;2.20;;;20.40;64.80;;;;;;5035574;28;20510;-83
2023/05/29 07:55:58;;;;;;;5.63;2.60;;;20.40;64.90;;;;;;5008385;28;20457;-83
2023/05/29 07:58:24;;;;;;;8.77;2.40;;;20.40;65.00;;;;;;5038077;28;20473;-84
2023/05/29 08:00:59;;;;;;;6.00;2.70;;;20.40;65.00;;;;;;5040030;28;20217;-83
2023/05/29 08:03:27;;;;;;;7.87;2.83;;;20.50;65.10;;;;;;5003368;28;20971;-83
2023/05/29 08:06:13;;;;;;;6.30;2.70;;;20.50;65.10;;;;;;5020003;28;20973;-85
2023/05/29 08:08:39;;;;;;;7.60;2.97;;;20.50;65.00;;;;;;5038405;28;20825;-84
2023/05/29 08:11:07;;;;;;;7.93;2.70;;;20.50;65.00;;;;;;5023624;28;20418;-85
2023/05/29 08:13:33;;;;;;;5.83;2.63;;;20.50;65.00;;;;;;5023059;28;20473;-83
2023/05/29 08:16:02;;;;;;;7.20;2.87;;;20.50;65.00;;;;;;5039538;28;20479;-83
2023/05/29 08:18:30;;;;;;;6.47;2.37;;;20.60;65.00;;;;;;5057139;28;20430;-84
2023/05/29 08:20:59;;;;;;;5.50;2.30;;;20.60;65.10;;;;;;5039659;28;20488;-84
2023/05/29 08:23:25;;;;;;;5.13;2.60;;;20.60;65.10;;;;;;5057038;28;20756;-84
2023/05/29 08:25:51;;;;;;;6.10;2.50;;;20.60;65.10;;;;;;5057077;28;20418;-87
2023/05/29 08:28:16;;;;;;;6.07;2.33;;;20.60;65.10;;;;;;5022325;28;20441;-85
2023/05/29 08:30:47;;;;;;;5.63;2.60;;;20.60;65.10;;;;;;5014218;28;20957;-86
2023/05/29 08:33:16;;;;;;;6.80;2.57;;;20.70;65.20;;;;;;5026624;28;20457;-84
2023/05/29 08:35:41;;;;;;;6.70;2.50;;;20.70;65.20;;;;;;5043817;28;20476;-86
2023/05/29 08:38:07;;;;;;;6.90;2.33;;;20.70;65.20;;;;;;5038233;28;20423;-86
2023/05/29 08:40:33;;;;;;;5.40;2.70;;;20.70;65.30;;;;;;5039310;28;20175;-86
2023/05/29 08:43:20;;;;;;;7.27;2.67;;;20.70;65.30;;;;;;5039163;28;20636;-85
2023/05/29 08:45:51;;;;;;;5.60;2.40;;;20.70;65.30;;;;;;5022846;28;20509;-85
2023/05/29 08:48:19;;;;;;;6.20;2.93;;;20.70;65.30;;;;;;5039130;28;20476;-85
2023/05/29 08:51:01;;;;;;;4.60;2.53;;;20.70;65.30;;;;;;5039424;28;20414;-86
2023/05/29 08:53:31;;;;;;;7.63;2.83;;;20.70;65.50;;;;;;5021731;28;20454;-85
2023/05/29 08:55:59;;;;;;;5.13;2.40;;;20.80;65.70;;;;;;5035196;28;20810;-85
2023/05/29 08:58:26;;;;;;;3.97;2.20;;;20.80;65.70;;;;;;5037845;28;20817;-85
2023/05/29 09:00:57;;;;;;;5.47;2.30;;;20.80;65.60;;;;;;5039030;28;20425;-89
2023/05/29 09:03:23;;;;;;;6.17;2.40;;;20.80;65.60;;;;;;5039402;28;20439;-84
2023/05/29 09:06:03;;;;;;;6.90;2.67;;;20.90;65.70;;;;;;5051070;28;20505;-84
2023/05/29 09:08:32;;;;;;;4.80;2.40;;;20.90;65.70;;;;;;5022530;28;20442;-85
2023/05/29 09:11:01;;;;;;;7.60;2.80;;;20.90;65.80;;;;;;5037271;28;20515;-85
2023/05/29 09:13:28;;;;;;;5.50;2.47;;;20.90;65.80;;;;;;5005661;28;20439;-86
2023/05/29 09:16:03;;;;;;;6.50;2.50;;;21.00;66.00;;;;;;5020469;28;20896;-85
2023/05/29 09:18:30;;;;;;;6.40;2.70;;;21.00;66.10;;;;;;5005533;28;20434;-86
2023/05/29 09:20:57;;;;;;;6.10;2.60;;;21.00;66.10;;;;;;5054345;28;20423;-86
2023/05/29 09:23:25;;;;;;;7.57;2.73;;;21.00;66.20;;;;;;5038233;28;20454;-85
2023/05/29 09:25:56;;;;;;;6.60;2.37;;;21.00;66.10;;;;;;5043040;28;20422;-84
2023/05/29 09:28:26;;;;;;;5.53;2.70;;;21.10;66.10;;;;;;5025173;28;20451;-84
2023/05/29 09:30:52;;;;;;;8.73;3.03;;;21.10;66.10;;;;;;5052191;28;20516;-84
2023/05/29 09:33:18;;;;;;;5.60;2.43;;;21.10;66.10;;;;;;5055152;28;20577;-85
2023/05/29 09:35:54;;;;;;;5.87;2.40;;;21.10;66.00;;;;;;5037695;28;20195;-84
2023/05/29 09:38:22;;;;;;;6.43;2.80;;;21.10;66.00;;;;;;5050611;28;20422;-83
2023/05/29 09:40:48;;;;;;;7.53;2.30;;;21.20;66.10;;;;;;5018230;28;20517;-83
2023/05/29 09:43:19;;;;;;;6.17;2.60;;;21.20;66.10;;;;;;5023337;28;20184;-84
2023/05/29 09:45:49;;;;;;;5.70;2.63;;;21.30;66.40;;;;;;5035299;28;20772;-82
2023/05/29 09:48:22;;;;;;;5.90;2.60;;;21.30;66.20;;;;;;5024440;28;20430;-82
2023/05/29 09:50:49;;;;;;;6.10;3.13;;;21.30;66.10;;;;;;5001897;28;20445;-83
2023/05/29 09:53:24;;;;;;;4.50;2.97;;;21.30;66.20;;;;;;5031726;28;20445;-84
2023/05/29 09:55:55;;;;;;;7.90;3.10;;;21.30;66.90;;;;;;5034469;28;20815;-83
2023/05/29 09:58:26;;;;;;;6.40;2.93;;;21.40;67.00;;;;;;5037874;28;20447;-83
2023/05/29 10:00:55;;;;;;;7.03;2.70;;;21.40;66.10;;;;;;5037544;28;20407;-83
2023/05/29 10:03:23;;;;;;;8.40;3.00;;;21.50;66.10;;;;;;5047062;28;20468;-83
2023/05/29 10:05:52;;;;;;;5.93;2.67;;;21.40;66.10;;;;;;5057421;28;20420;-82
2023/05/29 10:08:19;;;;;;;6.13;2.23;;;21.50;66.20;;;;;;5023137;28;20445;-83
2023/05/29 10:10:58;;;;;;;5.60;2.57;;;21.50;66.20;;;;;;5025622;28;20735;-83
2023/05/29 10:13:31;;;;;;;7.00;2.90;;;21.60;66.30;;;;;;5054859;28;20434;-85
2023/05/29 10:15:58;;;;;;;5.73;2.60;;;21.60;66.30;;;;;;5054404;28;20493;-84
2023/05/29 10:18:31;;;;;;;7.43;3.13;;;21.60;66.10;;;;;;5037288;28;20426;-83
2023/05/29 10:21:01;;;;;;;6.50;2.73;;;21.70;66.10;;;;;;5036268;28;20841;-83
2023/05/29 10:23:33;;;;;;;7.67;3.20;;;21.70;65.90;;;;;;5020968;28;20442;-84
2023/05/29 10:26:12;;;;;;;5.30;3.00;;;21.70;65.90;;;;;;5037278;28;20457;-85
2023/05/29 10:28:42;;;;;;;5.83;2.70;;;21.70;66.00;;;;;;5017133;28;20463;-82
2023/05/29 10:31:18;;;;;;;11.20;2.90;;;21.70;65.90;;;;;;5051817;28;20521;-82
2023/05/29 10:34:08;;;;;;;4.70;3.00;;;21.80;66.00;;;;;;5028582;28;20864;-84
2023/05/29 10:36:44;;;;;;;5.50;2.30;;;21.80;65.90;;;;;;5021349;28;20442;-85
2023/05/29 10:39:10;;;;;;;9.10;3.10;;;21.80;65.80;;;;;;5047093;28;20969;-82
2023/05/29 10:41:40;;;;;;;7.70;2.53;;;21.90;65.80;;;;;;5020214;28;20485;-82
2023/05/29 10:44:33;;;;;;;5.07;2.57;;;21.90;65.70;;;;;;5034843;28;20767;-82
2023/05/29 10:46:59;;;;;;;5.80;2.80;;;21.90;65.70;;;;;;5054499;28;20429;-82
2023/05/29 10:49:29;;;;;;;10.07;2.83;;;22.00;65.80;;;;;;5054189;28;20429;-83
2023/05/29 10:51:57;;;;;;;6.30;2.60;;;22.00;65.80;;;;;;5011949;28;21056;-84
2023/05/29 10:54:25;;;;;;;6.43;2.40;;;22.00;65.80;;;;;;5034552;28;20476;-82
2023/05/29 10:57:06;;;;;;;7.40;2.53;;;22.00;65.70;;;;;;5002714;28;20870;-84
2023/05/29 10:59:37;;;;;;;8.30;2.90;;;22.10;65.70;;;;;;5051798;28;20424;-82
2023/05/29 11:02:06;;;;;;;5.20;2.30;;;22.10;65.50;;;;;;5020183;28;20516;-83
2023/05/29 11:04:34;;;;;;;8.20;2.67;;;22.10;65.40;;;;;;5044748;28;20443;-83
2023/05/29 11:07:03;;;;;;;5.33;3.37;;;22.10;65.40;;;;;;5035088;28;20447;-92
2023/05/29 11:09:44;;;;;;;4.83;2.60;;;22.20;66.40;;;;;;5035831;28;21004;-83
2023/05/29 11:12:33;;;;;;;6.03;2.73;;;22.20;65.50;;;;;;5004423;28;20418;-82
2023/05/29 11:15:08;;;;;;;6.57;2.57;;;22.20;65.40;;;;;;5053802;28;20810;-83
2023/05/29 11:17:39;;;;;;;6.93;3.27;;;22.30;65.50;;;;;;5070397;28;20447;-82
2023/05/29 11:20:07;;;;;;;5.03;2.37;;;22.30;65.50;;;;;;5037454;28;20469;-84
2023/05/29 11:22:48;;;;;;;7.00;3.13;;;22.30;65.40;;;;;;5058026;28;20484;-83
2023/05/29 11:25:15;;;;;;;10.10;4.07;;;22.30;65.90;;;;;;5039756;28;20477;-82
2023/05/29 11:27:45;;;;;;;8.87;3.17;;;22.40;65.50;;;;;;5057897;28;20888;-82
2023/05/29 11:30:13;;;;;;;8.93;2.63;;;22.30;64.90;;;;;;5036682;28;20522;-82
2023/05/29 11:32:45;;;;;;;5.93;3.13;;;22.30;64.80;;;;;;5045670;28;20751;-82
2023/05/29 11:35:12;;;;;;;7.97;3.13;;;22.40;65.00;;;;;;5060087;28;20469;-83
2023/05/29 11:37:47;;;;;;;5.30;2.53;;;22.40;65.10;;;;;;5043396;28;20472;-83
2023/05/29 11:40:15;;;;;;;6.10;2.93;;;22.40;65.00;;;;;;5076679;28;20733;-83
2023/05/29 11:42:48;;;;;;;5.30;2.73;;;22.40;65.00;;;;;;5060169;28;20476;-85
2023/05/29 11:45:15;;;;;;;4.03;2.43;;;22.50;65.10;;;;;;5060035;28;20886;-83
2023/05/29 11:47:55;;;;;;;5.90;3.20;;;22.50;65.10;;;;;;5060300;28;20869;-83
2023/05/29 11:50:28;;;;;;;5.73;2.80;;;22.50;65.00;;;;;;5059857;28;20790;-84
2023/05/29 11:52:59;;;;;;;6.50;2.63;;;22.60;65.00;;;;;;5076509;28;20401;-83
2023/05/29 11:55:28;;;;;;;7.93;2.67;;;22.60;64.90;;;;;;5077465;28;20446;-82
2023/05/29 11:58:01;;;;;;;7.43;3.10;;;22.60;64.70;;;;;;5077287;28;20441;-83
2023/05/29 12:00:38;;;;;;;7.57;2.50;;;22.60;64.60;;;;;;5043473;28;20753;-82
2023/05/29 12:03:11;;;;;;;5.93;3.10;;;22.70;64.60;;;;;;5077114;28;20468;-82
2023/05/29 12:05:49;;;;;;;6.50;3.17;;;22.70;64.60;;;;;;5059630;28;20417;-83
2023/05/29 12:08:24;;;;;;;4.33;2.60;;;22.70;64.40;;;;;;5077274;28;20421;-83
2023/05/29 12:10:53;;;;;;;6.17;3.10;;;22.70;64.10;;;;;;5077206;28;20398;-82
2023/05/29 12:13:23;;;;;;;4.77;2.80;;;22.80;64.00;;;;;;5059538;28;20491;-82
2023/05/29 12:15:54;;;;;;;5.77;2.70;;;22.80;64.80;;;;;;5076935;28;20500;-82
2023/05/29 12:18:25;;;;;;;6.67;2.70;;;22.80;63.80;;;;;;5077704;28;20412;-82
2023/05/29 12:21:00;;;;;;;8.73;3.00;;;22.80;63.60;;;;;;5042731;28;20501;-82
2023/05/29 12:23:29;;;;;;;7.30;2.90;;;22.90;63.80;;;;;;5059657;28;20421;-83
2023/05/29 12:25:56;;;;;;;4.53;2.67;;;22.90;63.80;;;;;;5076696;28;20432;-82
2023/05/29 12:28:25;;;;;;;4.57;2.50;;;22.90;64.50;;;;;;5059204;28;20774;-82
2023/05/29 12:30:58;;;;;;;4.43;2.97;;;22.90;63.70;;;;;;5059203;28;20751;-83
2023/05/29 12:33:30;;;;;;;5.23;3.00;;;22.90;63.60;;;;;;5059124;28;20426;-82
2023/05/29 12:36:06;;;;;;;8.40;4.10;;;23.00;63.80;;;;;;5075694;28;20764;-81
2023/05/29 12:38:48;;;;;;;7.57;3.07;;;23.00;63.80;;;;;;5059073;28;20393;-83
2023/05/29 12:41:34;;;;;;;10.70;3.40;;;23.00;63.80;;;;;;5058962;28;20432;-83
2023/05/29 12:44:04;;;;;;;5.20;2.67;;;23.10;64.00;;;;;;5059034;28;20447;-82
2023/05/29 12:46:39;;;;;;;4.03;2.87;;;23.10;64.00;;;;;;5058106;28;20964;-82
2023/05/29 12:49:23;;;;;;;4.13;2.53;;;23.10;63.90;;;;;;5075321;28;20410;-81
2023/05/29 12:51:56;;;;;;;6.70;3.33;;;23.10;64.10;;;;;;5057816;28;20430;-82
2023/05/29 12:54:22;;;;;;;3.57;2.27;;;23.20;64.20;;;;;;5057792;28;20790;-83
2023/05/29 12:56:50;;;;;;;6.10;3.13;;;23.20;64.30;;;;;;5057682;28;20434;-83
2023/05/29 12:59:16;;;;;;;5.90;3.00;;;23.20;64.20;;;;;;5075115;28;20202;-82